sensor_id;sensor_type;location;lat;lon;timestamp;temperature;humidity
11666;DHT22;5889;51.350;6.708;2023-02-13T00:00:17;9.40;99.90
11666;DHT22;5889;51.350;6.708;2023-02-13T00:02:45;9.40;99.90
11666;DHT22;5889;51.350;6.708;2023-02-13T00:05:12;9.40;99.90
11666;DHT22;5889;51.350;6.708;2023-02-13T00:07:39;9.40;99.90
11666;DHT22;5889;51.350;6.708;2023-02-13T00:10:06;9.40;99.90
11666;DHT22;5889;51.350;6.708;2023-02-13T00:12:35;9.40;99.90
11666;DHT22;5889;51.350;6.708;2023-02-13T00:15:03;9.40;99.90
11666;DHT22;5889;51.350;6.708;2023-02-13T00:17:30;9.40;99.90
11666;DHT22;5889;51.350;6.708;2023-02-13T00:19:58;9.40;99.90
11666;DHT22;5889;51.350;6.708;2023-02-13T00:22:25;9.40;99.90
11666;DHT22;5889;51.350;6.708;2023-02-13T00:24:52;9.40;99.90
11666;DHT22;5889;51.350;6.708;2023-02-13T00:27:19;9.40;99.90
11666;DHT22;5889;51.350;6.708;2023-02-13T00:29:47;9.40;99.90
11666;DHT22;5889;51.350;6.708;2023-02-13T00:32:14;9.30;99.90
11666;DHT22;5889;51.350;6.708;2023-02-13T00:34:41;9.30;99.90
11666;DHT22;5889;51.350;6.708;2023-02-13T00:37:08;9.30;99.90
11666;DHT22;5889;51.350;6.708;2023-02-13T00:39:35;9.30;99.90
11666;DHT22;5889;51.350;6.708;2023-02-13T00:42:03;9.30;99.90
11666;DHT22;5889;51.350;6.708;2023-02-13T00:44:30;9.30;99.90
11666;DHT22;5889;51.350;6.708;2023-02-13T00:46:58;9.30;99.90
11666;DHT22;5889;51.350;6.708;2023-02-13T00:49:25;9.30;99.90
11666;DHT22;5889;51.350;6.708;2023-02-13T00:51:52;9.30;99.90
11666;DHT22;5889;51.350;6.708;2023-02-13T00:54:19;9.30;99.90
11666;DHT22;5889;51.350;6.708;2023-02-13T00:56:46;9.30;99.90
11666;DHT22;5889;51.350;6.708;2023-02-13T00:59:13;9.20;99.90
11666;DHT22;5889;51.350;6.708;2023-02-13T01:01:41;9.20;99.90
11666;DHT22;5889;51.350;6.708;2023-02-13T01:04:10;9.20;99.90
11666;DHT22;5889;51.350;6.708;2023-02-13T01:06:37;9.20;99.90
11666;DHT22;5889;51.350;6.708;2023-02-13T01:09:04;9.20;99.90
11666;DHT22;5889;51.350;6.708;2023-02-13T01:11:31;9.20;99.90
11666;DHT22;5889;51.350;6.708;2023-02-13T01:13:58;9.20;99.90
11666;DHT22;5889;51.350;6.708;2023-02-13T01:16:24;9.20;99.90
11666;DHT22;5889;51.350;6.708;2023-02-13T01:18:51;9.20;99.90
11666;DHT22;5889;51.350;6.708;2023-02-13T01:21:21;9.20;99.90
11666;DHT22;5889;51.350;6.708;2023-02-13T01:23:49;9.20;99.90
11666;DHT22;5889;51.350;6.708;2023-02-13T01:26:18;9.20;99.90
11666;DHT22;5889;51.350;6.708;2023-02-13T01:28:46;9.20;99.90
11666;DHT22;5889;51.350;6.708;2023-02-13T01:31:13;9.20;99.90
11666;DHT22;5889;51.350;6.708;2023-02-13T01:33:40;9.20;99.90
11666;DHT22;5889;51.350;6.708;2023-02-13T01:36:09;9.10;99.90
11666;DHT22;5889;51.350;6.708;2023-02-13T01:38:37;9.10;99.90
11666;DHT22;5889;51.350;6.708;2023-02-13T01:41:05;9.20;99.90
11666;DHT22;5889;51.350;6.708;2023-02-13T01:43:44;9.20;99.90
11666;DHT22;5889;51.350;6.708;2023-02-13T01:46:13;9.10;99.90
11666;DHT22;5889;51.350;6.708;2023-02-13T01:48:41;9.10;99.90
11666;DHT22;5889;51.350;6.708;2023-02-13T01:51:12;9.10;99.90
11666;DHT22;5889;51.350;6.708;2023-02-13T01:53:44;9.10;99.90
11666;DHT22;5889;51.350;6.708;2023-02-13T01:56:14;9.10;99.90
11666;DHT22;5889;51.350;6.708;2023-02-13T01:58:45;9.10;99.90
11666;DHT22;5889;51.350;6.708;2023-02-13T02:01:12;9.10;99.90
11666;DHT22;5889;51.350;6.708;2023-02-13T02:03:43;9.00;99.90
11666;DHT22;5889;51.350;6.708;2023-02-13T02:06:17;9.00;99.90
11666;DHT22;5889;51.350;6.708;2023-02-13T02:08:49;9.00;99.90
11666;DHT22;5889;51.350;6.708;2023-02-13T02:11:24;9.00;99.90
11666;DHT22;5889;51.350;6.708;2023-02-13T02:13:53;8.90;99.90
11666;DHT22;5889;51.350;6.708;2023-02-13T02:16:20;8.90;99.90
11666;DHT22;5889;51.350;6.708;2023-02-13T02:18:47;8.90;99.90
11666;DHT22;5889;51.350;6.708;2023-02-13T02:24:50;8.90;99.90
11666;DHT22;5889;51.350;6.708;2023-02-13T02:27:39;8.80;99.90
11666;DHT22;5889;51.350;6.708;2023-02-13T02:30:34;8.80;99.90
11666;DHT22;5889;51.350;6.708;2023-02-13T02:33:17;8.80;99.90
11666;DHT22;5889;51.350;6.708;2023-02-13T02:35:52;8.80;99.90
11666;DHT22;5889;51.350;6.708;2023-02-13T02:38:36;8.80;99.90
11666;DHT22;5889;51.350;6.708;2023-02-13T02:41:09;8.80;99.90
11666;DHT22;5889;51.350;6.708;2023-02-13T02:44:07;8.80;99.90
11666;DHT22;5889;51.350;6.708;2023-02-13T02:46:38;8.80;99.90
11666;DHT22;5889;51.350;6.708;2023-02-13T02:49:32;8.80;99.90
11666;DHT22;5889;51.350;6.708;2023-02-13T02:52:26;8.70;99.90
11666;DHT22;5889;51.350;6.708;2023-02-13T02:55:00;8.70;99.90
11666;DHT22;5889;51.350;6.708;2023-02-13T02:57:38;8.70;99.90
11666;DHT22;5889;51.350;6.708;2023-02-13T03:00:27;8.70;99.90
11666;DHT22;5889;51.350;6.708;2023-02-13T03:03:15;8.70;99.90
11666;DHT22;5889;51.350;6.708;2023-02-13T03:06:05;8.70;99.90
11666;DHT22;5889;51.350;6.708;2023-02-13T03:08:40;8.70;99.90
11666;DHT22;5889;51.350;6.708;2023-02-13T03:11:27;8.70;99.90
11666;DHT22;5889;51.350;6.708;2023-02-13T03:14:13;8.70;99.90
11666;DHT22;5889;51.350;6.708;2023-02-13T03:16:42;8.70;99.90
11666;DHT22;5889;51.350;6.708;2023-02-13T03:19:34;8.70;99.90
11666;DHT22;5889;51.350;6.708;2023-02-13T03:22:30;8.70;99.90
11666;DHT22;5889;51.350;6.708;2023-02-13T03:25:06;8.70;99.90
11666;DHT22;5889;51.350;6.708;2023-02-13T03:27:43;8.70;99.90
11666;DHT22;5889;51.350;6.708;2023-02-13T03:30:38;8.70;99.90
11666;DHT22;5889;51.350;6.708;2023-02-13T03:33:17;8.70;99.90
11666;DHT22;5889;51.350;6.708;2023-02-13T03:35:48;8.70;99.90
11666;DHT22;5889;51.350;6.708;2023-02-13T03:38:49;8.70;99.90
11666;DHT22;5889;51.350;6.708;2023-02-13T03:41:21;8.60;99.90
11666;DHT22;5889;51.350;6.708;2023-02-13T03:43:56;8.60;99.90
11666;DHT22;5889;51.350;6.708;2023-02-13T03:46:26;8.60;99.90
11666;DHT22;5889;51.350;6.708;2023-02-13T03:48:55;8.60;99.90
11666;DHT22;5889;51.350;6.708;2023-02-13T03:51:44;8.60;99.90
11666;DHT22;5889;51.350;6.708;2023-02-13T03:54:19;8.60;99.90
11666;DHT22;5889;51.350;6.708;2023-02-13T03:56:48;8.60;99.90
11666;DHT22;5889;51.350;6.708;2023-02-13T03:59:35;8.60;99.90
11666;DHT22;5889;51.350;6.708;2023-02-13T04:02:09;8.60;99.90
11666;DHT22;5889;51.350;6.708;2023-02-13T04:04:43;8.50;99.90
11666;DHT22;5889;51.350;6.708;2023-02-13T04:07:13;8.50;99.90
11666;DHT22;5889;51.350;6.708;2023-02-13T04:09:55;8.50;99.90
11666;DHT22;5889;51.350;6.708;2023-02-13T04:12:32;8.60;99.90
11666;DHT22;5889;51.350;6.708;2023-02-13T04:15:05;8.60;99.90
11666;DHT22;5889;51.350;6.708;2023-02-13T04:17:36;8.50;99.90
11666;DHT22;5889;51.350;6.708;2023-02-13T04:20:06;8.60;99.90
11666;DHT22;5889;51.350;6.708;2023-02-13T04:22:33;8.60;99.90
11666;DHT22;5889;51.350;6.708;2023-02-13T04:25:01;8.50;99.90
11666;DHT22;5889;51.350;6.708;2023-02-13T04:27:28;8.50;99.90
11666;DHT22;5889;51.350;6.708;2023-02-13T04:29:55;8.50;99.90
11666;DHT22;5889;51.350;6.708;2023-02-13T04:32:22;8.50;99.90
11666;DHT22;5889;51.350;6.708;2023-02-13T04:34:49;8.50;99.90
11666;DHT22;5889;51.350;6.708;2023-02-13T04:37:16;8.60;99.90
11666;DHT22;5889;51.350;6.708;2023-02-13T04:39:43;8.50;99.90
11666;DHT22;5889;51.350;6.708;2023-02-13T04:42:11;8.50;99.90
11666;DHT22;5889;51.350;6.708;2023-02-13T04:44:38;8.50;99.90
11666;DHT22;5889;51.350;6.708;2023-02-13T04:47:05;8.50;99.90
11666;DHT22;5889;51.350;6.708;2023-02-13T04:49:32;8.50;99.90
11666;DHT22;5889;51.350;6.708;2023-02-13T04:51:59;8.50;99.90
11666;DHT22;5889;51.350;6.708;2023-02-13T04:54:26;8.50;99.90
11666;DHT22;5889;51.350;6.708;2023-02-13T04:56:53;8.50;99.90
11666;DHT22;5889;51.350;6.708;2023-02-13T04:59:21;8.50;99.90
11666;DHT22;5889;51.350;6.708;2023-02-13T05:01:48;8.40;99.90
11666;DHT22;5889;51.350;6.708;2023-02-13T05:04:15;8.40;99.90
11666;DHT22;5889;51.350;6.708;2023-02-13T05:06:42;8.40;99.90
11666;DHT22;5889;51.350;6.708;2023-02-13T05:09:09;8.40;99.90
11666;DHT22;5889;51.350;6.708;2023-02-13T05:11:36;8.30;99.90
11666;DHT22;5889;51.350;6.708;2023-02-13T05:14:03;8.30;99.90
11666;DHT22;5889;51.350;6.708;2023-02-13T05:16:31;8.30;99.90
11666;DHT22;5889;51.350;6.708;2023-02-13T05:18:58;8.20;99.90
11666;DHT22;5889;51.350;6.708;2023-02-13T05:21:25;8.20;99.90
11666;DHT22;5889;51.350;6.708;2023-02-13T05:24:10;8.10;99.90
11666;DHT22;5889;51.350;6.708;2023-02-13T05:26:37;8.10;99.90
11666;DHT22;5889;51.350;6.708;2023-02-13T05:29:03;8.10;99.90
11666;DHT22;5889;51.350;6.708;2023-02-13T05:31:50;8.00;99.90
11666;DHT22;5889;51.350;6.708;2023-02-13T05:34:18;8.00;99.90
11666;DHT22;5889;51.350;6.708;2023-02-13T05:36:45;7.90;99.90
11666;DHT22;5889;51.350;6.708;2023-02-13T05:39:12;7.90;99.90
11666;DHT22;5889;51.350;6.708;2023-02-13T05:41:40;7.80;99.90
11666;DHT22;5889;51.350;6.708;2023-02-13T05:44:07;7.70;99.90
11666;DHT22;5889;51.350;6.708;2023-02-13T05:46:35;7.70;99.90
11666;DHT22;5889;51.350;6.708;2023-02-13T05:49:05;7.70;99.90
11666;DHT22;5889;51.350;6.708;2023-02-13T05:51:32;7.60;99.90
11666;DHT22;5889;51.350;6.708;2023-02-13T05:53:59;7.50;99.90
11666;DHT22;5889;51.350;6.708;2023-02-13T05:56:26;7.40;99.90
11666;DHT22;5889;51.350;6.708;2023-02-13T05:58:53;7.40;99.90
11666;DHT22;5889;51.350;6.708;2023-02-13T06:01:22;7.30;99.90
11666;DHT22;5889;51.350;6.708;2023-02-13T06:03:49;7.30;99.90
11666;DHT22;5889;51.350;6.708;2023-02-13T06:06:18;7.20;99.90
11666;DHT22;5889;51.350;6.708;2023-02-13T06:08:45;7.20;99.90
11666;DHT22;5889;51.350;6.708;2023-02-13T06:11:12;7.20;99.90
11666;DHT22;5889;51.350;6.708;2023-02-13T06:13:39;7.10;99.90
11666;DHT22;5889;51.350;6.708;2023-02-13T06:16:06;7.10;99.90
11666;DHT22;5889;51.350;6.708;2023-02-13T06:18:34;7.10;99.90
11666;DHT22;5889;51.350;6.708;2023-02-13T06:21:01;7.00;99.90
11666;DHT22;5889;51.350;6.708;2023-02-13T06:23:30;7.00;99.90
11666;DHT22;5889;51.350;6.708;2023-02-13T06:26:01;6.90;99.90
11666;DHT22;5889;51.350;6.708;2023-02-13T06:28:28;6.90;99.90
11666;DHT22;5889;51.350;6.708;2023-02-13T06:30:55;6.90;99.90
11666;DHT22;5889;51.350;6.708;2023-02-13T06:33:22;6.90;99.90
11666;DHT22;5889;51.350;6.708;2023-02-13T06:35:49;6.90;99.90
11666;DHT22;5889;51.350;6.708;2023-02-13T06:38:16;6.80;99.90
11666;DHT22;5889;51.350;6.708;2023-02-13T06:40:45;6.80;99.90
11666;DHT22;5889;51.350;6.708;2023-02-13T06:43:12;6.80;99.90
11666;DHT22;5889;51.350;6.708;2023-02-13T06:45:39;6.70;99.90
11666;DHT22;5889;51.350;6.708;2023-02-13T06:48:08;6.70;99.90
11666;DHT22;5889;51.350;6.708;2023-02-13T06:50:35;6.70;99.90
11666;DHT22;5889;51.350;6.708;2023-02-13T06:53:02;6.70;99.90
11666;DHT22;5889;51.350;6.708;2023-02-13T06:55:29;6.70;99.90
11666;DHT22;5889;51.350;6.708;2023-02-13T06:57:57;6.60;99.90
11666;DHT22;5889;51.350;6.708;2023-02-13T07:00:24;6.60;99.90
11666;DHT22;5889;51.350;6.708;2023-02-13T07:02:51;6.60;99.90
11666;DHT22;5889;51.350;6.708;2023-02-13T07:05:18;6.70;99.90
11666;DHT22;5889;51.350;6.708;2023-02-13T07:07:45;6.60;99.90
11666;DHT22;5889;51.350;6.708;2023-02-13T07:10:13;6.60;99.90
11666;DHT22;5889;51.350;6.708;2023-02-13T07:12:40;6.60;99.90
11666;DHT22;5889;51.350;6.708;2023-02-13T07:15:09;6.70;99.90
11666;DHT22;5889;51.350;6.708;2023-02-13T07:17:36;6.70;99.90
11666;DHT22;5889;51.350;6.708;2023-02-13T07:20:04;6.70;99.90
11666;DHT22;5889;51.350;6.708;2023-02-13T07:22:31;6.70;99.90
11666;DHT22;5889;51.350;6.708;2023-02-13T07:24:59;6.70;99.90
11666;DHT22;5889;51.350;6.708;2023-02-13T07:27:27;6.70;99.90
11666;DHT22;5889;51.350;6.708;2023-02-13T07:29:55;6.80;99.90
11666;DHT22;5889;51.350;6.708;2023-02-13T07:32:24;6.80;99.90
11666;DHT22;5889;51.350;6.708;2023-02-13T07:34:51;6.90;99.90
11666;DHT22;5889;51.350;6.708;2023-02-13T07:37:18;6.90;99.90
11666;DHT22;5889;51.350;6.708;2023-02-13T07:39:45;6.90;99.90
11666;DHT22;5889;51.350;6.708;2023-02-13T07:42:12;6.90;99.90
11666;DHT22;5889;51.350;6.708;2023-02-13T07:44:38;7.00;99.90
11666;DHT22;5889;51.350;6.708;2023-02-13T07:47:07;7.00;99.90
11666;DHT22;5889;51.350;6.708;2023-02-13T07:49:36;7.10;99.90
11666;DHT22;5889;51.350;6.708;2023-02-13T07:52:06;7.10;99.90
11666;DHT22;5889;51.350;6.708;2023-02-13T07:54:33;7.20;99.90
11666;DHT22;5889;51.350;6.708;2023-02-13T07:56:59;7.20;99.90
11666;DHT22;5889;51.350;6.708;2023-02-13T07:59:26;7.20;99.90
11666;DHT22;5889;51.350;6.708;2023-02-13T08:01:53;7.30;99.90
11666;DHT22;5889;51.350;6.708;2023-02-13T08:04:20;7.40;99.90
11666;DHT22;5889;51.350;6.708;2023-02-13T08:06:49;7.40;99.90
11666;DHT22;5889;51.350;6.708;2023-02-13T08:09:19;7.40;99.90
11666;DHT22;5889;51.350;6.708;2023-02-13T08:12:05;7.50;99.90
11666;DHT22;5889;51.350;6.708;2023-02-13T08:14:35;7.60;99.90
11666;DHT22;5889;51.350;6.708;2023-02-13T08:17:02;7.60;99.90
11666;DHT22;5889;51.350;6.708;2023-02-13T08:19:29;7.70;99.90
11666;DHT22;5889;51.350;6.708;2023-02-13T08:21:57;7.70;99.90
11666;DHT22;5889;51.350;6.708;2023-02-13T08:24:24;7.80;99.90
11666;DHT22;5889;51.350;6.708;2023-02-13T08:26:51;7.80;99.90
11666;DHT22;5889;51.350;6.708;2023-02-13T08:29:19;7.90;99.90
11666;DHT22;5889;51.350;6.708;2023-02-13T08:31:46;8.00;99.90
11666;DHT22;5889;51.350;6.708;2023-02-13T08:34:13;8.10;99.90
11666;DHT22;5889;51.350;6.708;2023-02-13T08:36:40;8.20;99.90
11666;DHT22;5889;51.350;6.708;2023-02-13T08:39:09;8.20;99.90
11666;DHT22;5889;51.350;6.708;2023-02-13T08:41:36;8.30;99.90
11666;DHT22;5889;51.350;6.708;2023-02-13T08:44:04;8.40;99.90
11666;DHT22;5889;51.350;6.708;2023-02-13T08:46:31;8.50;99.90
11666;DHT22;5889;51.350;6.708;2023-02-13T08:48:58;8.50;99.90
11666;DHT22;5889;51.350;6.708;2023-02-13T08:51:24;8.50;99.90
11666;DHT22;5889;51.350;6.708;2023-02-13T08:53:51;8.60;99.90
11666;DHT22;5889;51.350;6.708;2023-02-13T08:56:20;8.70;99.90
11666;DHT22;5889;51.350;6.708;2023-02-13T08:58:47;8.70;99.90
11666;DHT22;5889;51.350;6.708;2023-02-13T09:01:15;8.80;99.90
11666;DHT22;5889;51.350;6.708;2023-02-13T09:03:42;8.90;99.90
11666;DHT22;5889;51.350;6.708;2023-02-13T09:06:09;9.00;99.90
11666;DHT22;5889;51.350;6.708;2023-02-13T09:08:36;9.00;99.90
11666;DHT22;5889;51.350;6.708;2023-02-13T09:11:03;9.10;99.90
11666;DHT22;5889;51.350;6.708;2023-02-13T09:13:34;9.20;99.90
11666;DHT22;5889;51.350;6.708;2023-02-13T09:16:03;9.30;99.90
11666;DHT22;5889;51.350;6.708;2023-02-13T09:18:30;9.30;99.90
11666;DHT22;5889;51.350;6.708;2023-02-13T09:20:58;9.30;99.90
11666;DHT22;5889;51.350;6.708;2023-02-13T09:23:26;9.40;99.90
11666;DHT22;5889;51.350;6.708;2023-02-13T09:25:58;9.50;99.90
11666;DHT22;5889;51.350;6.708;2023-02-13T09:28:25;9.50;99.90
11666;DHT22;5889;51.350;6.708;2023-02-13T09:30:54;9.60;99.90
11666;DHT22;5889;51.350;6.708;2023-02-13T09:33:21;9.60;99.90
11666;DHT22;5889;51.350;6.708;2023-02-13T09:35:48;9.70;99.90
11666;DHT22;5889;51.350;6.708;2023-02-13T09:38:15;9.80;99.90
11666;DHT22;5889;51.350;6.708;2023-02-13T09:40:44;9.80;99.90
11666;DHT22;5889;51.350;6.708;2023-02-13T09:43:16;9.80;99.90
11666;DHT22;5889;51.350;6.708;2023-02-13T09:45:45;9.80;99.90
11666;DHT22;5889;51.350;6.708;2023-02-13T09:48:23;9.90;99.90
11666;DHT22;5889;51.350;6.708;2023-02-13T09:50:53;10.00;99.90
11666;DHT22;5889;51.350;6.708;2023-02-13T09:53:22;10.10;99.90
11666;DHT22;5889;51.350;6.708;2023-02-13T09:55:57;10.30;99.90
11666;DHT22;5889;51.350;6.708;2023-02-13T09:58:35;10.40;99.90
11666;DHT22;5889;51.350;6.708;2023-02-13T10:01:12;10.50;99.90
11666;DHT22;5889;51.350;6.708;2023-02-13T10:03:47;10.60;99.90
11666;DHT22;5889;51.350;6.708;2023-02-13T10:06:21;10.70;99.90
11666;DHT22;5889;51.350;6.708;2023-02-13T10:09:05;10.80;99.90
11666;DHT22;5889;51.350;6.708;2023-02-13T10:14:32;11.00;99.90
11666;DHT22;5889;51.350;6.708;2023-02-13T10:17:05;11.00;99.90
11666;DHT22;5889;51.350;6.708;2023-02-13T10:19:40;11.10;99.90
11666;DHT22;5889;51.350;6.708;2023-02-13T10:22:12;11.20;99.90
11666;DHT22;5889;51.350;6.708;2023-02-13T10:24:44;11.30;99.90
11666;DHT22;5889;51.350;6.708;2023-02-13T10:27:19;11.30;99.90
11666;DHT22;5889;51.350;6.708;2023-02-13T10:29:50;11.50;99.90
11666;DHT22;5889;51.350;6.708;2023-02-13T10:32:38;11.50;99.90
11666;DHT22;5889;51.350;6.708;2023-02-13T10:35:20;11.50;99.90
11666;DHT22;5889;51.350;6.708;2023-02-13T10:37:50;11.60;99.90
11666;DHT22;5889;51.350;6.708;2023-02-13T10:40:18;11.60;99.90
11666;DHT22;5889;51.350;6.708;2023-02-13T10:42:51;11.70;99.90
11666;DHT22;5889;51.350;6.708;2023-02-13T10:45:39;11.70;99.90
11666;DHT22;5889;51.350;6.708;2023-02-13T10:51:08;11.80;99.90
11666;DHT22;5889;51.350;6.708;2023-02-13T10:53:58;11.90;99.90
11666;DHT22;5889;51.350;6.708;2023-02-13T10:56:33;12.00;99.90
11666;DHT22;5889;51.350;6.708;2023-02-13T10:59:14;12.00;99.90
11666;DHT22;5889;51.350;6.708;2023-02-13T11:01:47;12.10;99.90
11666;DHT22;5889;51.350;6.708;2023-02-13T11:04:18;12.10;99.90
11666;DHT22;5889;51.350;6.708;2023-02-13T11:06:51;12.00;99.90
11666;DHT22;5889;51.350;6.708;2023-02-13T11:09:20;12.00;99.90
11666;DHT22;5889;51.350;6.708;2023-02-13T11:11:47;12.00;99.90
11666;DHT22;5889;51.350;6.708;2023-02-13T11:14:16;12.10;99.90
11666;DHT22;5889;51.350;6.708;2023-02-13T11:16:49;12.10;99.90
11666;DHT22;5889;51.350;6.708;2023-02-13T11:19:21;12.10;99.90
11666;DHT22;5889;51.350;6.708;2023-02-13T11:21:55;12.20;99.90
11666;DHT22;5889;51.350;6.708;2023-02-13T11:24:25;12.20;99.90
11666;DHT22;5889;51.350;6.708;2023-02-13T11:26:57;12.30;99.90
11666;DHT22;5889;51.350;6.708;2023-02-13T11:29:26;12.30;99.90
11666;DHT22;5889;51.350;6.708;2023-02-13T11:32:07;12.30;99.90
11666;DHT22;5889;51.350;6.708;2023-02-13T11:34:42;12.30;99.90
11666;DHT22;5889;51.350;6.708;2023-02-13T11:37:17;12.20;99.90
11666;DHT22;5889;51.350;6.708;2023-02-13T11:39:46;12.30;99.90
11666;DHT22;5889;51.350;6.708;2023-02-13T11:42:14;12.30;99.90
11666;DHT22;5889;51.350;6.708;2023-02-13T11:44:48;12.30;99.90
11666;DHT22;5889;51.350;6.708;2023-02-13T11:47:15;12.40;99.90
11666;DHT22;5889;51.350;6.708;2023-02-13T11:49:45;12.30;99.90
11666;DHT22;5889;51.350;6.708;2023-02-13T11:52:23;12.40;99.90
11666;DHT22;5889;51.350;6.708;2023-02-13T11:54:56;12.50;99.90
11666;DHT22;5889;51.350;6.708;2023-02-13T11:57:28;12.50;99.90
11666;DHT22;5889;51.350;6.708;2023-02-13T11:59:56;12.60;99.90
11666;DHT22;5889;51.350;6.708;2023-02-13T12:02:25;12.60;99.90
11666;DHT22;5889;51.350;6.708;2023-02-13T12:04:53;12.60;99.90
11666;DHT22;5889;51.350;6.708;2023-02-13T12:07:27;12.50;99.90
11666;DHT22;5889;51.350;6.708;2023-02-13T12:10:00;12.50;99.90
11666;DHT22;5889;51.350;6.708;2023-02-13T12:12:34;12.60;99.90
11666;DHT22;5889;51.350;6.708;2023-02-13T12:15:15;12.70;99.90
11666;DHT22;5889;51.350;6.708;2023-02-13T12:17:44;12.70;99.90
11666;DHT22;5889;51.350;6.708;2023-02-13T12:20:14;12.70;99.90
11666;DHT22;5889;51.350;6.708;2023-02-13T12:22:53;12.70;99.90
11666;DHT22;5889;51.350;6.708;2023-02-13T12:25:45;12.80;99.90
11666;DHT22;5889;51.350;6.708;2023-02-13T12:28:15;12.80;99.90
11666;DHT22;5889;51.350;6.708;2023-02-13T12:31:02;12.90;99.90
11666;DHT22;5889;51.350;6.708;2023-02-13T12:36:47;12.90;99.90
11666;DHT22;5889;51.350;6.708;2023-02-13T12:39:25;12.80;99.90
11666;DHT22;5889;51.350;6.708;2023-02-13T12:42:20;12.80;99.90
11666;DHT22;5889;51.350;6.708;2023-02-13T12:45:20;12.90;99.90
11666;DHT22;5889;51.350;6.708;2023-02-13T12:48:03;12.90;99.90
11666;DHT22;5889;51.350;6.708;2023-02-13T12:50:41;13.00;99.90
11666;DHT22;5889;51.350;6.708;2023-02-13T12:59:00;13.10;99.90
11666;DHT22;5889;51.350;6.708;2023-02-13T13:01:51;13.10;99.90
11666;DHT22;5889;51.350;6.708;2023-02-13T13:04:25;13.10;99.90
11666;DHT22;5889;51.350;6.708;2023-02-13T13:07:25;13.20;99.90
11666;DHT22;5889;51.350;6.708;2023-02-13T13:10:09;13.20;99.90
11666;DHT22;5889;51.350;6.708;2023-02-13T13:12:48;13.20;99.90
11666;DHT22;5889;51.350;6.708;2023-02-13T13:15:24;13.20;99.90
11666;DHT22;5889;51.350;6.708;2023-02-13T13:18:05;13.20;99.90
11666;DHT22;5889;51.350;6.708;2023-02-13T13:20:47;13.30;99.90
11666;DHT22;5889;51.350;6.708;2023-02-13T13:23:20;13.30;99.90
11666;DHT22;5889;51.350;6.708;2023-02-13T13:25:56;13.40;99.90
11666;DHT22;5889;51.350;6.708;2023-02-13T13:28:29;13.40;99.90
11666;DHT22;5889;51.350;6.708;2023-02-13T13:30:59;13.40;99.90
11666;DHT22;5889;51.350;6.708;2023-02-13T13:33:26;13.40;99.90
11666;DHT22;5889;51.350;6.708;2023-02-13T13:35:59;13.50;99.90
11666;DHT22;5889;51.350;6.708;2023-02-13T13:38:37;13.40;99.90
11666;DHT22;5889;51.350;6.708;2023-02-13T13:41:13;13.50;99.90
11666;DHT22;5889;51.350;6.708;2023-02-13T13:43:57;13.50;99.90
11666;DHT22;5889;51.350;6.708;2023-02-13T13:46:36;13.50;99.90
11666;DHT22;5889;51.350;6.708;2023-02-13T13:49:14;13.50;99.90
11666;DHT22;5889;51.350;6.708;2023-02-13T13:51:43;13.50;99.90
11666;DHT22;5889;51.350;6.708;2023-02-13T13:54:18;13.60;99.90
11666;DHT22;5889;51.350;6.708;2023-02-13T13:57:07;13.70;99.90
11666;DHT22;5889;51.350;6.708;2023-02-13T14:00:18;13.70;99.90
11666;DHT22;5889;51.350;6.708;2023-02-13T14:02:49;13.70;99.90
11666;DHT22;5889;51.350;6.708;2023-02-13T14:05:25;13.70;99.90
11666;DHT22;5889;51.350;6.708;2023-02-13T14:07:56;13.70;99.90
11666;DHT22;5889;51.350;6.708;2023-02-13T14:13:36;13.70;99.90
11666;DHT22;5889;51.350;6.708;2023-02-13T14:16:09;13.70;99.90
11666;DHT22;5889;51.350;6.708;2023-02-13T14:18:37;13.60;99.90
11666;DHT22;5889;51.350;6.708;2023-02-13T14:21:08;13.70;99.90
11666;DHT22;5889;51.350;6.708;2023-02-13T14:23:45;13.70;99.90
11666;DHT22;5889;51.350;6.708;2023-02-13T14:26:38;13.70;99.90
11666;DHT22;5889;51.350;6.708;2023-02-13T14:29:32;13.70;99.90
11666;DHT22;5889;51.350;6.708;2023-02-13T14:32:12;13.70;99.90
11666;DHT22;5889;51.350;6.708;2023-02-13T14:34:41;13.70;99.90
11666;DHT22;5889;51.350;6.708;2023-02-13T14:37:18;13.70;99.90
11666;DHT22;5889;51.350;6.708;2023-02-13T14:43:07;13.70;99.90
11666;DHT22;5889;51.350;6.708;2023-02-13T14:45:46;13.70;99.90
11666;DHT22;5889;51.350;6.708;2023-02-13T14:48:16;13.70;99.90
11666;DHT22;5889;51.350;6.708;2023-02-13T14:50:45;13.70;99.90
11666;DHT22;5889;51.350;6.708;2023-02-13T14:53:22;13.70;99.90
11666;DHT22;5889;51.350;6.708;2023-02-13T14:55:55;13.70;99.90
11666;DHT22;5889;51.350;6.708;2023-02-13T14:58:25;13.70;99.90
11666;DHT22;5889;51.350;6.708;2023-02-13T15:00:56;13.70;99.90
11666;DHT22;5889;51.350;6.708;2023-02-13T15:03:28;13.70;99.90
11666;DHT22;5889;51.350;6.708;2023-02-13T15:06:00;13.70;99.90
11666;DHT22;5889;51.350;6.708;2023-02-13T15:08:31;13.60;99.90
11666;DHT22;5889;51.350;6.708;2023-02-13T15:11:03;13.60;99.90
11666;DHT22;5889;51.350;6.708;2023-02-13T15:13:50;13.60;99.90
11666;DHT22;5889;51.350;6.708;2023-02-13T15:16:17;13.60;99.90
11666;DHT22;5889;51.350;6.708;2023-02-13T15:18:47;13.60;99.90
11666;DHT22;5889;51.350;6.708;2023-02-13T15:21:20;13.60;99.90
11666;DHT22;5889;51.350;6.708;2023-02-13T15:23:49;13.60;99.90
11666;DHT22;5889;51.350;6.708;2023-02-13T15:26:19;13.60;99.90
11666;DHT22;5889;51.350;6.708;2023-02-13T15:28:57;13.50;99.90
11666;DHT22;5889;51.350;6.708;2023-02-13T15:31:24;13.50;99.90
11666;DHT22;5889;51.350;6.708;2023-02-13T15:33:56;13.40;99.90
11666;DHT22;5889;51.350;6.708;2023-02-13T15:36:24;13.40;99.90
11666;DHT22;5889;51.350;6.708;2023-02-13T15:38:58;13.40;99.90
11666;DHT22;5889;51.350;6.708;2023-02-13T15:41:30;13.40;99.90
11666;DHT22;5889;51.350;6.708;2023-02-13T15:44:02;13.30;99.90
11666;DHT22;5889;51.350;6.708;2023-02-13T15:46:31;13.30;99.90
11666;DHT22;5889;51.350;6.708;2023-02-13T15:49:04;13.20;99.90
11666;DHT22;5889;51.350;6.708;2023-02-13T15:51:34;13.10;99.90
11666;DHT22;5889;51.350;6.708;2023-02-13T15:54:18;13.00;99.90
11666;DHT22;5889;51.350;6.708;2023-02-13T15:56:47;12.90;99.90
11666;DHT22;5889;51.350;6.708;2023-02-13T15:59:16;12.80;99.90
11666;DHT22;5889;51.350;6.708;2023-02-13T16:01:44;12.70;99.90
11666;DHT22;5889;51.350;6.708;2023-02-13T16:04:15;12.60;99.90
11666;DHT22;5889;51.350;6.708;2023-02-13T16:06:44;12.60;99.90
11666;DHT22;5889;51.350;6.708;2023-02-13T16:09:22;12.50;99.90
11666;DHT22;5889;51.350;6.708;2023-02-13T16:11:54;12.50;99.90
11666;DHT22;5889;51.350;6.708;2023-02-13T16:14:23;12.40;99.90
11666;DHT22;5889;51.350;6.708;2023-02-13T16:16:54;12.40;99.90
11666;DHT22;5889;51.350;6.708;2023-02-13T16:19:26;12.40;99.90
11666;DHT22;5889;51.350;6.708;2023-02-13T16:21:55;12.30;99.90
11666;DHT22;5889;51.350;6.708;2023-02-13T16:24:24;12.30;99.90
11666;DHT22;5889;51.350;6.708;2023-02-13T16:26:52;12.30;99.90
11666;DHT22;5889;51.350;6.708;2023-02-13T16:29:21;12.20;99.90
11666;DHT22;5889;51.350;6.708;2023-02-13T16:31:51;12.20;99.90
11666;DHT22;5889;51.350;6.708;2023-02-13T16:34:27;12.10;99.90
11666;DHT22;5889;51.350;6.708;2023-02-13T16:36:55;12.00;99.90
11666;DHT22;5889;51.350;6.708;2023-02-13T16:39:26;12.00;99.90
11666;DHT22;5889;51.350;6.708;2023-02-13T16:41:54;11.90;99.90
11666;DHT22;5889;51.350;6.708;2023-02-13T16:44:27;11.90;99.90
11666;DHT22;5889;51.350;6.708;2023-02-13T16:46:56;11.80;99.90
11666;DHT22;5889;51.350;6.708;2023-02-13T16:49:27;11.80;99.90